Terminal Aerodrome Forecast
Issued by NWS Jackson, MS

Home | Current Version | Previous Version | Text Only | Print | Product List | Glossary On
Versions: 1 2 3 4 5 6 7 8 9 10 11 12 13 14 15 16
000
FTUS44 KJAN 011700
TAFMEI
TAF
KMEI 011724Z 0118/0218 17003KT P6SM SCT040 BKN200
     FM012200 06005KT P6SM SCT040 BKN150
     FM020900 18004KT 4SM BR SCT005 OVC025
     FM021400 17005KT P6SM BKN050=

USA.gov is the U.S. government's official web portal to all federal, state and local government web resources and services.